sensor_id;sensor_type;location;lat;lon;timestamp;P1;durP1;ratioP1;P2;durP2;ratioP2
52686;SDS011;38584;49.426;8.396;2022-12-29T07:54:37;7.75;;;1.98;;
52686;SDS011;38584;49.426;8.396;2022-12-29T07:57:02;11.15;;;2.58;;
52686;SDS011;38584;49.426;8.396;2022-12-29T07:59:28;9.05;;;2.22;;
52686;SDS011;38584;49.426;8.396;2022-12-29T08:01:53;11.95;;;2.58;;
52686;SDS011;38584;49.426;8.396;2022-12-29T08:04:19;9.10;;;2.50;;
52686;SDS011;38584;49.426;8.396;2022-12-29T08:06:44;8.32;;;2.10;;
52686;SDS011;38584;49.426;8.396;2022-12-29T08:09:10;6.80;;;2.05;;
52686;SDS011;38584;49.426;8.396;2022-12-29T08:11:35;9.35;;;2.22;;
52686;SDS011;38584;49.426;8.396;2022-12-29T08:14:01;7.43;;;2.22;;
52686;SDS011;38584;49.426;8.396;2022-12-29T08:16:27;12.35;;;2.78;;
52686;SDS011;38584;49.426;8.396;2022-12-29T08:18:52;7.00;;;2.22;;
52686;SDS011;38584;49.426;8.396;2022-12-29T08:21:17;5.38;;;2.00;;
52686;SDS011;38584;49.426;8.396;2022-12-29T08:23:42;7.28;;;2.17;;
52686;SDS011;38584;49.426;8.396;2022-12-29T08:26:08;6.90;;;2.30;;
52686;SDS011;38584;49.426;8.396;2022-12-29T08:28:34;7.35;;;2.33;;
52686;SDS011;38584;49.426;8.396;2022-12-29T08:31:00;9.90;;;2.70;;
52686;SDS011;38584;49.426;8.396;2022-12-29T08:33:26;6.05;;;2.20;;
52686;SDS011;38584;49.426;8.396;2022-12-29T08:35:53;9.25;;;2.40;;
52686;SDS011;38584;49.426;8.396;2022-12-29T08:38:24;7.43;;;2.47;;
52686;SDS011;38584;49.426;8.396;2022-12-29T08:40:50;8.82;;;2.40;;
52686;SDS011;38584;49.426;8.396;2022-12-29T08:43:16;9.43;;;2.38;;
52686;SDS011;38584;49.426;8.396;2022-12-29T08:45:41;9.57;;;2.80;;
52686;SDS011;38584;49.426;8.396;2022-12-29T08:48:07;10.45;;;2.15;;
52686;SDS011;38584;49.426;8.396;2022-12-29T08:50:32;7.15;;;2.17;;
52686;SDS011;38584;49.426;8.396;2022-12-29T08:52:57;9.57;;;2.40;;
52686;SDS011;38584;49.426;8.396;2022-12-29T08:55:22;11.25;;;2.60;;
52686;SDS011;38584;49.426;8.396;2022-12-29T08:57:48;6.38;;;2.05;;
52686;SDS011;38584;49.426;8.396;2022-12-29T09:00:13;7.28;;;2.13;;
52686;SDS011;38584;49.426;8.396;2022-12-29T09:02:40;6.18;;;2.03;;
52686;SDS011;38584;49.426;8.396;2022-12-29T09:05:05;7.18;;;2.15;;
52686;SDS011;38584;49.426;8.396;2022-12-29T09:07:31;11.75;;;2.13;;
52686;SDS011;38584;49.426;8.396;2022-12-29T09:09:56;7.10;;;2.15;;
52686;SDS011;38584;49.426;8.396;2022-12-29T09:12:21;5.80;;;2.33;;
52686;SDS011;38584;49.426;8.396;2022-12-29T09:14:47;8.27;;;1.88;;
52686;SDS011;38584;49.426;8.396;2022-12-29T09:17:12;16.52;;;2.28;;
52686;SDS011;38584;49.426;8.396;2022-12-29T09:19:56;5.38;;;2.08;;
52686;SDS011;38584;49.426;8.396;2022-12-29T09:22:21;6.03;;;1.98;;
52686;SDS011;38584;49.426;8.396;2022-12-29T09:24:47;4.45;;;1.92;;
52686;SDS011;38584;49.426;8.396;2022-12-29T09:27:12;4.60;;;1.80;;
52686;SDS011;38584;49.426;8.396;2022-12-29T09:29:37;8.43;;;2.10;;
52686;SDS011;38584;49.426;8.396;2022-12-29T09:32:03;15.27;;;2.22;;
52686;SDS011;38584;49.426;8.396;2022-12-29T09:34:28;4.93;;;2.10;;
52686;SDS011;38584;49.426;8.396;2022-12-29T09:36:54;7.78;;;2.03;;
52686;SDS011;38584;49.426;8.396;2022-12-29T09:39:21;6.07;;;1.90;;
52686;SDS011;38584;49.426;8.396;2022-12-29T09:41:49;8.65;;;2.10;;
52686;SDS011;38584;49.426;8.396;2022-12-29T09:44:26;5.72;;;1.98;;
52686;SDS011;38584;49.426;8.396;2022-12-29T09:46:58;7.45;;;2.17;;
52686;SDS011;38584;49.426;8.396;2022-12-29T09:49:39;3.58;;;1.83;;
52686;SDS011;38584;49.426;8.396;2022-12-29T09:52:11;7.88;;;2.08;;
52686;SDS011;38584;49.426;8.396;2022-12-29T09:55:01;7.30;;;2.10;;
52686;SDS011;38584;49.426;8.396;2022-12-29T09:57:48;5.28;;;2.00;;
52686;SDS011;38584;49.426;8.396;2022-12-29T10:00:17;7.95;;;2.20;;
52686;SDS011;38584;49.426;8.396;2022-12-29T10:02:55;8.50;;;2.10;;
52686;SDS011;38584;49.426;8.396;2022-12-29T10:05:30;6.45;;;2.30;;
52686;SDS011;38584;49.426;8.396;2022-12-29T10:08:14;8.05;;;2.35;;
52686;SDS011;38584;49.426;8.396;2022-12-29T10:11:21;11.48;;;2.65;;
52686;SDS011;38584;49.426;8.396;2022-12-29T10:14:17;7.45;;;2.15;;
52686;SDS011;38584;49.426;8.396;2022-12-29T10:16:56;7.95;;;2.42;;
52686;SDS011;38584;49.426;8.396;2022-12-29T10:22:20;8.90;;;2.85;;
52686;SDS011;38584;49.426;8.396;2022-12-29T10:24:54;9.25;;;2.30;;
52686;SDS011;38584;49.426;8.396;2022-12-29T10:27:21;9.23;;;2.50;;
52686;SDS011;38584;49.426;8.396;2022-12-29T10:29:48;7.38;;;2.30;;
52686;SDS011;38584;49.426;8.396;2022-12-29T10:32:23;8.30;;;2.13;;
52686;SDS011;38584;49.426;8.396;2022-12-29T10:34:53;9.38;;;2.42;;
52686;SDS011;38584;49.426;8.396;2022-12-29T10:37:27;6.60;;;2.20;;
52686;SDS011;38584;49.426;8.396;2022-12-29T10:39:57;9.65;;;2.28;;
52686;SDS011;38584;49.426;8.396;2022-12-29T10:45:02;8.00;;;2.35;;
52686;SDS011;38584;49.426;8.396;2022-12-29T10:47:36;5.68;;;2.00;;
52686;SDS011;38584;49.426;8.396;2022-12-29T10:50:04;5.75;;;2.10;;
52686;SDS011;38584;49.426;8.396;2022-12-29T10:52:29;6.72;;;2.15;;
52686;SDS011;38584;49.426;8.396;2022-12-29T10:55:00;8.63;;;2.45;;
52686;SDS011;38584;49.426;8.396;2022-12-29T10:59:59;9.32;;;2.50;;
52686;SDS011;38584;49.426;8.396;2022-12-29T11:05:19;9.43;;;2.00;;
52686;SDS011;38584;49.426;8.396;2022-12-29T11:07:49;7.30;;;2.30;;
52686;SDS011;38584;49.426;8.396;2022-12-29T11:12:54;8.75;;;1.92;;
52686;SDS011;38584;49.426;8.396;2022-12-29T11:15:22;5.57;;;1.90;;
52686;SDS011;38584;49.426;8.396;2022-12-29T11:17:50;6.15;;;2.08;;
52686;SDS011;38584;49.426;8.396;2022-12-29T11:20:35;6.10;;;2.10;;
52686;SDS011;38584;49.426;8.396;2022-12-29T11:23:24;6.55;;;1.95;;
52686;SDS011;38584;49.426;8.396;2022-12-29T11:26:08;10.98;;;1.98;;
52686;SDS011;38584;49.426;8.396;2022-12-29T11:28:37;5.40;;;1.80;;
52686;SDS011;38584;49.426;8.396;2022-12-29T11:31:03;7.03;;;2.30;;
52686;SDS011;38584;49.426;8.396;2022-12-29T11:33:31;13.75;;;2.15;;
52686;SDS011;38584;49.426;8.396;2022-12-29T11:35:58;7.05;;;1.75;;
52686;SDS011;38584;49.426;8.396;2022-12-29T11:38:34;8.70;;;1.88;;
52686;SDS011;38584;49.426;8.396;2022-12-29T11:41:01;5.82;;;1.90;;
52686;SDS011;38584;49.426;8.396;2022-12-29T11:43:31;5.90;;;1.85;;
52686;SDS011;38584;49.426;8.396;2022-12-29T11:46:00;6.05;;;1.85;;
52686;SDS011;38584;49.426;8.396;2022-12-29T11:48:29;7.20;;;1.90;;
52686;SDS011;38584;49.426;8.396;2022-12-29T11:50:59;6.43;;;1.80;;
52686;SDS011;38584;49.426;8.396;2022-12-29T11:53:29;7.05;;;1.95;;
52686;SDS011;38584;49.426;8.396;2022-12-29T11:56:01;6.60;;;1.60;;
52686;SDS011;38584;49.426;8.396;2022-12-29T11:58:33;5.57;;;1.73;;
52686;SDS011;38584;49.426;8.396;2022-12-29T12:01:13;6.90;;;1.70;;
52686;SDS011;38584;49.426;8.396;2022-12-29T12:03:42;6.93;;;1.65;;
52686;SDS011;38584;49.426;8.396;2022-12-29T12:06:14;6.40;;;1.80;;
52686;SDS011;38584;49.426;8.396;2022-12-29T12:08:44;5.03;;;1.50;;
52686;SDS011;38584;49.426;8.396;2022-12-29T12:11:19;4.95;;;1.30;;
52686;SDS011;38584;49.426;8.396;2022-12-29T12:13:58;5.10;;;1.08;;
52686;SDS011;38584;49.426;8.396;2022-12-29T12:16:27;5.15;;;1.50;;
52686;SDS011;38584;49.426;8.396;2022-12-29T12:19:02;2.00;;;1.10;;
52686;SDS011;38584;49.426;8.396;2022-12-29T12:21:37;2.83;;;1.25;;
52686;SDS011;38584;49.426;8.396;2022-12-29T12:27:23;5.25;;;1.50;;
52686;SDS011;38584;49.426;8.396;2022-12-29T12:32:45;6.50;;;1.63;;
52686;SDS011;38584;49.426;8.396;2022-12-29T12:35:34;8.02;;;2.50;;
52686;SDS011;38584;49.426;8.396;2022-12-29T12:38:16;5.28;;;1.63;;
52686;SDS011;38584;49.426;8.396;2022-12-29T12:43:37;6.95;;;1.80;;
52686;SDS011;38584;49.426;8.396;2022-12-29T12:46:28;5.22;;;1.60;;
52686;SDS011;38584;49.426;8.396;2022-12-29T12:49:26;5.82;;;2.00;;
52686;SDS011;38584;49.426;8.396;2022-12-29T13:00:19;6.80;;;1.67;;
52686;SDS011;38584;49.426;8.396;2022-12-29T13:08:02;4.57;;;1.80;;
52686;SDS011;38584;49.426;8.396;2022-12-29T13:18:56;6.32;;;1.50;;
52686;SDS011;38584;49.426;8.396;2022-12-29T13:24:33;3.83;;;1.25;;
52686;SDS011;38584;49.426;8.396;2022-12-29T13:29:46;3.90;;;1.13;;
52686;SDS011;38584;49.426;8.396;2022-12-29T13:34:54;3.70;;;1.08;;
52686;SDS011;38584;49.426;8.396;2022-12-29T13:37:44;6.72;;;1.55;;
52686;SDS011;38584;49.426;8.396;2022-12-29T13:40:15;3.85;;;1.10;;
52686;SDS011;38584;49.426;8.396;2022-12-29T13:42:42;6.03;;;1.35;;
52686;SDS011;38584;49.426;8.396;2022-12-29T13:45:13;4.05;;;1.25;;
52686;SDS011;38584;49.426;8.396;2022-12-29T13:47:59;6.13;;;1.42;;
52686;SDS011;38584;49.426;8.396;2022-12-29T13:50:28;5.80;;;1.45;;
52686;SDS011;38584;49.426;8.396;2022-12-29T13:55:51;5.32;;;1.48;;
52686;SDS011;38584;49.426;8.396;2022-12-29T14:00:59;5.35;;;1.23;;
52686;SDS011;38584;49.426;8.396;2022-12-29T14:03:39;2.15;;;0.95;;
52686;SDS011;38584;49.426;8.396;2022-12-29T14:08:45;3.97;;;1.00;;
52686;SDS011;38584;49.426;8.396;2022-12-29T14:11:11;4.47;;;1.00;;
52686;SDS011;38584;49.426;8.396;2022-12-29T14:13:40;6.70;;;1.23;;
52686;SDS011;38584;49.426;8.396;2022-12-29T14:16:06;8.95;;;1.33;;
52686;SDS011;38584;49.426;8.396;2022-12-29T14:18:33;3.75;;;1.17;;
52686;SDS011;38584;49.426;8.396;2022-12-29T14:21:20;5.50;;;1.08;;
52686;SDS011;38584;49.426;8.396;2022-12-29T14:23:47;4.10;;;1.00;;
52686;SDS011;38584;49.426;8.396;2022-12-29T14:26:18;3.60;;;0.85;;
52686;SDS011;38584;49.426;8.396;2022-12-29T14:29:16;6.45;;;1.30;;
52686;SDS011;38584;49.426;8.396;2022-12-29T14:31:48;8.32;;;1.35;;
52686;SDS011;38584;49.426;8.396;2022-12-29T14:36:39;5.88;;;1.20;;
52686;SDS011;38584;49.426;8.396;2022-12-29T14:39:28;7.10;;;1.50;;
52686;SDS011;38584;49.426;8.396;2022-12-29T14:42:15;7.25;;;1.80;;
52686;SDS011;38584;49.426;8.396;2022-12-29T14:47:16;3.08;;;1.55;;
52686;SDS011;38584;49.426;8.396;2022-12-29T14:49:44;5.97;;;1.20;;
52686;SDS011;38584;49.426;8.396;2022-12-29T14:57:48;4.80;;;1.40;;
52686;SDS011;38584;49.426;8.396;2022-12-29T15:00:16;4.60;;;1.30;;
52686;SDS011;38584;49.426;8.396;2022-12-29T15:02:54;4.65;;;1.00;;
52686;SDS011;38584;49.426;8.396;2022-12-29T15:08:19;6.40;;;1.10;;
52686;SDS011;38584;49.426;8.396;2022-12-29T15:13:50;5.65;;;1.30;;
52686;SDS011;38584;49.426;8.396;2022-12-29T15:16:34;7.15;;;1.50;;
52686;SDS011;38584;49.426;8.396;2022-12-29T15:19:01;5.30;;;1.23;;
52686;SDS011;38584;49.426;8.396;2022-12-29T15:21:29;5.93;;;1.23;;
52686;SDS011;38584;49.426;8.396;2022-12-29T15:23:56;6.60;;;1.10;;
52686;SDS011;38584;49.426;8.396;2022-12-29T15:26:21;2.83;;;1.13;;
52686;SDS011;38584;49.426;8.396;2022-12-29T15:28:48;7.13;;;1.30;;
52686;SDS011;38584;49.426;8.396;2022-12-29T15:31:16;5.35;;;1.13;;
52686;SDS011;38584;49.426;8.396;2022-12-29T15:33:45;5.68;;;1.30;;
52686;SDS011;38584;49.426;8.396;2022-12-29T15:36:22;6.75;;;1.30;;
52686;SDS011;38584;49.426;8.396;2022-12-29T15:38:50;8.35;;;1.80;;
52686;SDS011;38584;49.426;8.396;2022-12-29T15:41:22;9.70;;;1.50;;
52686;SDS011;38584;49.426;8.396;2022-12-29T15:46:40;8.40;;;1.35;;
52686;SDS011;38584;49.426;8.396;2022-12-29T15:49:06;7.68;;;1.52;;
52686;SDS011;38584;49.426;8.396;2022-12-29T15:51:34;8.73;;;1.90;;
52686;SDS011;38584;49.426;8.396;2022-12-29T15:54:01;7.15;;;1.65;;
52686;SDS011;38584;49.426;8.396;2022-12-29T15:56:31;11.02;;;2.08;;
52686;SDS011;38584;49.426;8.396;2022-12-29T15:58:57;10.95;;;2.40;;
52686;SDS011;38584;49.426;8.396;2022-12-29T16:03:47;7.30;;;1.50;;
52686;SDS011;38584;49.426;8.396;2022-12-29T16:08:56;5.55;;;1.70;;
52686;SDS011;38584;49.426;8.396;2022-12-29T16:11:50;6.38;;;1.60;;
52686;SDS011;38584;49.426;8.396;2022-12-29T16:14:23;10.23;;;2.25;;
52686;SDS011;38584;49.426;8.396;2022-12-29T16:16:52;6.78;;;1.55;;
52686;SDS011;38584;49.426;8.396;2022-12-29T16:19:24;6.25;;;1.50;;
52686;SDS011;38584;49.426;8.396;2022-12-29T16:21:53;5.15;;;1.30;;
52686;SDS011;38584;49.426;8.396;2022-12-29T16:24:20;5.47;;;1.50;;
52686;SDS011;38584;49.426;8.396;2022-12-29T16:26:49;5.28;;;1.40;;
52686;SDS011;38584;49.426;8.396;2022-12-29T16:29:24;6.32;;;1.88;;
52686;SDS011;38584;49.426;8.396;2022-12-29T16:31:52;6.75;;;1.58;;
52686;SDS011;38584;49.426;8.396;2022-12-29T16:34:31;7.38;;;1.90;;
52686;SDS011;38584;49.426;8.396;2022-12-29T16:36:59;9.48;;;2.60;;
52686;SDS011;38584;49.426;8.396;2022-12-29T16:42:01;10.30;;;2.55;;
52686;SDS011;38584;49.426;8.396;2022-12-29T16:44:46;10.18;;;2.42;;
52686;SDS011;38584;49.426;8.396;2022-12-29T16:49:38;9.57;;;2.37;;
52686;SDS011;38584;49.426;8.396;2022-12-29T16:52:11;9.18;;;2.25;;
52686;SDS011;38584;49.426;8.396;2022-12-29T16:54:57;12.55;;;2.30;;
52686;SDS011;38584;49.426;8.396;2022-12-29T16:57:32;10.35;;;2.20;;
52686;SDS011;38584;49.426;8.396;2022-12-29T17:00:16;9.27;;;2.20;;
52686;SDS011;38584;49.426;8.396;2022-12-29T17:02:44;7.45;;;2.05;;
52686;SDS011;38584;49.426;8.396;2022-12-29T17:05:12;6.18;;;1.83;;
52686;SDS011;38584;49.426;8.396;2022-12-29T17:07:38;8.27;;;1.88;;
52686;SDS011;38584;49.426;8.396;2022-12-29T17:10:04;8.27;;;1.80;;
52686;SDS011;38584;49.426;8.396;2022-12-29T17:12:30;10.80;;;3.10;;
52686;SDS011;38584;49.426;8.396;2022-12-29T17:19:56;12.43;;;2.65;;
52686;SDS011;38584;49.426;8.396;2022-12-29T17:22:25;10.93;;;3.35;;
52686;SDS011;38584;49.426;8.396;2022-12-29T17:24:52;14.20;;;5.15;;
52686;SDS011;38584;49.426;8.396;2022-12-29T17:27:52;16.08;;;5.80;;
52686;SDS011;38584;49.426;8.396;2022-12-29T17:30:14;14.32;;;5.35;;
52686;SDS011;38584;49.426;8.396;2022-12-29T17:32:51;8.80;;;3.00;;
52686;SDS011;38584;49.426;8.396;2022-12-29T17:35:18;8.90;;;3.17;;
52686;SDS011;38584;49.426;8.396;2022-12-29T17:37:45;12.50;;;3.58;;
52686;SDS011;38584;49.426;8.396;2022-12-29T17:40:14;10.02;;;2.75;;
52686;SDS011;38584;49.426;8.396;2022-12-29T17:42:44;10.38;;;2.92;;
52686;SDS011;38584;49.426;8.396;2022-12-29T17:45:15;10.85;;;3.00;;
52686;SDS011;38584;49.426;8.396;2022-12-29T17:47:41;11.18;;;3.28;;
52686;SDS011;38584;49.426;8.396;2022-12-29T17:50:14;11.00;;;2.90;;
52686;SDS011;38584;49.426;8.396;2022-12-29T17:52:41;8.88;;;3.35;;
52686;SDS011;38584;49.426;8.396;2022-12-29T17:55:14;11.98;;;3.42;;
52686;SDS011;38584;49.426;8.396;2022-12-29T17:57:41;15.57;;;3.90;;
52686;SDS011;38584;49.426;8.396;2022-12-29T18:00:09;10.63;;;3.92;;
52686;SDS011;38584;49.426;8.396;2022-12-29T18:02:39;12.48;;;4.10;;
52686;SDS011;38584;49.426;8.396;2022-12-29T18:05:04;12.75;;;4.35;;
52686;SDS011;38584;49.426;8.396;2022-12-29T18:07:33;12.75;;;4.25;;
52686;SDS011;38584;49.426;8.396;2022-12-29T18:09:58;14.38;;;3.88;;
52686;SDS011;38584;49.426;8.396;2022-12-29T18:12:28;12.43;;;3.50;;
52686;SDS011;38584;49.426;8.396;2022-12-29T18:14:55;12.77;;;4.00;;
52686;SDS011;38584;49.426;8.396;2022-12-29T18:17:21;19.02;;;5.25;;
52686;SDS011;38584;49.426;8.396;2022-12-29T18:19:46;18.20;;;6.43;;
52686;SDS011;38584;49.426;8.396;2022-12-29T18:22:11;15.25;;;4.82;;
52686;SDS011;38584;49.426;8.396;2022-12-29T18:24:37;16.58;;;3.80;;
52686;SDS011;38584;49.426;8.396;2022-12-29T18:27:12;14.65;;;3.72;;
52686;SDS011;38584;49.426;8.396;2022-12-29T18:29:39;13.65;;;4.07;;
52686;SDS011;38584;49.426;8.396;2022-12-29T18:32:05;14.55;;;3.25;;
52686;SDS011;38584;49.426;8.396;2022-12-29T18:34:32;15.23;;;2.95;;
52686;SDS011;38584;49.426;8.396;2022-12-29T18:36:57;14.98;;;2.95;;
52686;SDS011;38584;49.426;8.396;2022-12-29T18:39:23;14.45;;;2.80;;
52686;SDS011;38584;49.426;8.396;2022-12-29T18:41:49;13.43;;;2.90;;
52686;SDS011;38584;49.426;8.396;2022-12-29T18:44:14;11.70;;;2.42;;
52686;SDS011;38584;49.426;8.396;2022-12-29T18:46:39;11.95;;;2.70;;
52686;SDS011;38584;49.426;8.396;2022-12-29T18:49:05;15.43;;;4.40;;
52686;SDS011;38584;49.426;8.396;2022-12-29T18:51:30;16.73;;;3.35;;
52686;SDS011;38584;49.426;8.396;2022-12-29T18:53:55;13.60;;;3.22;;
52686;SDS011;38584;49.426;8.396;2022-12-29T18:56:21;13.80;;;2.67;;
52686;SDS011;38584;49.426;8.396;2022-12-29T18:58:47;12.57;;;2.63;;
52686;SDS011;38584;49.426;8.396;2022-12-29T19:01:17;13.48;;;2.40;;
52686;SDS011;38584;49.426;8.396;2022-12-29T19:03:45;9.90;;;2.60;;
52686;SDS011;38584;49.426;8.396;2022-12-29T19:06:10;12.90;;;2.65;;
52686;SDS011;38584;49.426;8.396;2022-12-29T19:08:35;11.35;;;2.67;;
52686;SDS011;38584;49.426;8.396;2022-12-29T19:11:01;12.10;;;2.97;;
52686;SDS011;38584;49.426;8.396;2022-12-29T19:13:26;10.50;;;2.75;;
52686;SDS011;38584;49.426;8.396;2022-12-29T19:15:53;11.40;;;2.88;;
52686;SDS011;38584;49.426;8.396;2022-12-29T19:18:21;10.02;;;2.53;;
52686;SDS011;38584;49.426;8.396;2022-12-29T19:20:48;13.48;;;3.30;;
52686;SDS011;38584;49.426;8.396;2022-12-29T19:23:18;11.13;;;2.97;;
52686;SDS011;38584;49.426;8.396;2022-12-29T19:25:44;15.35;;;3.67;;
52686;SDS011;38584;49.426;8.396;2022-12-29T19:28:18;16.15;;;4.10;;
52686;SDS011;38584;49.426;8.396;2022-12-29T19:30:45;16.15;;;4.03;;
52686;SDS011;38584;49.426;8.396;2022-12-29T19:33:11;14.45;;;3.85;;
52686;SDS011;38584;49.426;8.396;2022-12-29T19:35:36;17.67;;;4.30;;
52686;SDS011;38584;49.426;8.396;2022-12-29T19:38:01;17.40;;;3.67;;
52686;SDS011;38584;49.426;8.396;2022-12-29T19:40:27;13.27;;;3.80;;
52686;SDS011;38584;49.426;8.396;2022-12-29T19:42:55;13.27;;;3.60;;
52686;SDS011;38584;49.426;8.396;2022-12-29T19:45:21;16.48;;;4.10;;
52686;SDS011;38584;49.426;8.396;2022-12-29T19:47:46;14.70;;;4.68;;
52686;SDS011;38584;49.426;8.396;2022-12-29T19:50:12;13.07;;;3.90;;
52686;SDS011;38584;49.426;8.396;2022-12-29T19:52:39;14.32;;;3.85;;
52686;SDS011;38584;49.426;8.396;2022-12-29T19:55:05;18.67;;;4.60;;
52686;SDS011;38584;49.426;8.396;2022-12-29T19:57:31;13.80;;;3.88;;
52686;SDS011;38584;49.426;8.396;2022-12-29T19:59:56;13.55;;;3.72;;
52686;SDS011;38584;49.426;8.396;2022-12-29T20:02:23;12.98;;;3.70;;
52686;SDS011;38584;49.426;8.396;2022-12-29T20:04:50;14.13;;;3.55;;
52686;SDS011;38584;49.426;8.396;2022-12-29T20:07:15;15.45;;;3.72;;
52686;SDS011;38584;49.426;8.396;2022-12-29T20:09:41;12.60;;;3.90;;
52686;SDS011;38584;49.426;8.396;2022-12-29T20:12:07;15.55;;;4.43;;
52686;SDS011;38584;49.426;8.396;2022-12-29T20:14:32;16.85;;;4.20;;
52686;SDS011;38584;49.426;8.396;2022-12-29T20:17:00;13.02;;;4.10;;
52686;SDS011;38584;49.426;8.396;2022-12-29T20:19:25;14.45;;;3.42;;
52686;SDS011;38584;49.426;8.396;2022-12-29T20:21:51;12.95;;;3.33;;
52686;SDS011;38584;49.426;8.396;2022-12-29T20:24:16;11.80;;;3.15;;
52686;SDS011;38584;49.426;8.396;2022-12-29T20:26:41;13.95;;;2.90;;
52686;SDS011;38584;49.426;8.396;2022-12-29T20:29:07;16.27;;;3.67;;
52686;SDS011;38584;49.426;8.396;2022-12-29T20:31:33;12.70;;;3.28;;
52686;SDS011;38584;49.426;8.396;2022-12-29T20:34:00;13.25;;;3.10;;
52686;SDS011;38584;49.426;8.396;2022-12-29T20:36:26;13.65;;;3.08;;
52686;SDS011;38584;49.426;8.396;2022-12-29T20:38:54;15.48;;;3.10;;
52686;SDS011;38584;49.426;8.396;2022-12-29T20:41:20;12.32;;;2.83;;
52686;SDS011;38584;49.426;8.396;2022-12-29T20:43:46;16.85;;;3.42;;
52686;SDS011;38584;49.426;8.396;2022-12-29T20:46:12;18.48;;;3.30;;
52686;SDS011;38584;49.426;8.396;2022-12-29T20:48:38;15.43;;;3.15;;
52686;SDS011;38584;49.426;8.396;2022-12-29T20:51:04;13.38;;;3.22;;
52686;SDS011;38584;49.426;8.396;2022-12-29T20:53:30;14.05;;;2.85;;
52686;SDS011;38584;49.426;8.396;2022-12-29T20:56:00;16.13;;;2.78;;
52686;SDS011;38584;49.426;8.396;2022-12-29T20:58:27;17.60;;;3.22;;
52686;SDS011;38584;49.426;8.396;2022-12-29T21:00:53;12.77;;;2.50;;
52686;SDS011;38584;49.426;8.396;2022-12-29T21:03:19;14.25;;;2.40;;
52686;SDS011;38584;49.426;8.396;2022-12-29T21:05:44;12.15;;;2.50;;
52686;SDS011;38584;49.426;8.396;2022-12-29T21:08:10;12.85;;;2.80;;
52686;SDS011;38584;49.426;8.396;2022-12-29T21:10:35;10.18;;;2.38;;
52686;SDS011;38584;49.426;8.396;2022-12-29T21:13:01;11.07;;;2.55;;
52686;SDS011;38584;49.426;8.396;2022-12-29T21:15:26;11.18;;;2.30;;
52686;SDS011;38584;49.426;8.396;2022-12-29T21:17:53;11.65;;;2.40;;
52686;SDS011;38584;49.426;8.396;2022-12-29T21:20:19;13.20;;;2.70;;
52686;SDS011;38584;49.426;8.396;2022-12-29T21:22:45;12.20;;;2.30;;
52686;SDS011;38584;49.426;8.396;2022-12-29T21:25:10;15.13;;;2.78;;
52686;SDS011;38584;49.426;8.396;2022-12-29T21:27:36;11.68;;;1.92;;
52686;SDS011;38584;49.426;8.396;2022-12-29T21:30:01;22.65;;;2.83;;
52686;SDS011;38584;49.426;8.396;2022-12-29T21:32:27;13.00;;;2.53;;
52686;SDS011;38584;49.426;8.396;2022-12-29T21:34:52;13.82;;;2.83;;
52686;SDS011;38584;49.426;8.396;2022-12-29T21:37:17;11.15;;;2.50;;
52686;SDS011;38584;49.426;8.396;2022-12-29T21:39:43;11.45;;;2.53;;
52686;SDS011;38584;49.426;8.396;2022-12-29T21:42:08;12.55;;;2.50;;
52686;SDS011;38584;49.426;8.396;2022-12-29T21:44:33;14.98;;;2.65;;
52686;SDS011;38584;49.426;8.396;2022-12-29T21:47:17;12.65;;;2.60;;
52686;SDS011;38584;49.426;8.396;2022-12-29T21:49:43;13.32;;;2.55;;
52686;SDS011;38584;49.426;8.396;2022-12-29T21:52:08;9.05;;;2.28;;
52686;SDS011;38584;49.426;8.396;2022-12-29T21:54:33;12.80;;;2.95;;
52686;SDS011;38584;49.426;8.396;2022-12-29T21:57:17;10.50;;;2.47;;
52686;SDS011;38584;49.426;8.396;2022-12-29T22:00:12;15.02;;;2.80;;
52686;SDS011;38584;49.426;8.396;2022-12-29T22:02:57;11.70;;;2.78;;
52686;SDS011;38584;49.426;8.396;2022-12-29T22:05:42;17.08;;;3.03;;
52686;SDS011;38584;49.426;8.396;2022-12-29T22:08:26;12.10;;;2.70;;
52686;SDS011;38584;49.426;8.396;2022-12-29T22:11:10;11.90;;;2.47;;
52686;SDS011;38584;49.426;8.396;2022-12-29T22:13:54;9.60;;;2.28;;
52686;SDS011;38584;49.426;8.396;2022-12-29T22:16:22;10.60;;;2.30;;
52686;SDS011;38584;49.426;8.396;2022-12-29T22:18:48;16.02;;;2.88;;
52686;SDS011;38584;49.426;8.396;2022-12-29T22:21:14;8.55;;;2.03;;
52686;SDS011;38584;49.426;8.396;2022-12-29T22:23:39;12.50;;;2.63;;
52686;SDS011;38584;49.426;8.396;2022-12-29T22:26:11;10.57;;;2.60;;
52686;SDS011;38584;49.426;8.396;2022-12-29T22:28:38;11.00;;;2.45;;
52686;SDS011;38584;49.426;8.396;2022-12-29T22:31:05;11.93;;;2.20;;
52686;SDS011;38584;49.426;8.396;2022-12-29T22:33:43;12.65;;;2.78;;
52686;SDS011;38584;49.426;8.396;2022-12-29T22:36:09;11.55;;;2.38;;
52686;SDS011;38584;49.426;8.396;2022-12-29T22:38:34;9.05;;;2.30;;
52686;SDS011;38584;49.426;8.396;2022-12-29T22:41:00;13.95;;;3.00;;
52686;SDS011;38584;49.426;8.396;2022-12-29T22:43:25;13.27;;;2.20;;
52686;SDS011;38584;49.426;8.396;2022-12-29T22:45:53;11.95;;;2.28;;
52686;SDS011;38584;49.426;8.396;2022-12-29T22:48:19;12.23;;;2.38;;
52686;SDS011;38584;49.426;8.396;2022-12-29T22:50:44;10.85;;;2.45;;
52686;SDS011;38584;49.426;8.396;2022-12-29T22:53:09;15.35;;;2.67;;
52686;SDS011;38584;49.426;8.396;2022-12-29T22:55:34;13.85;;;2.78;;
52686;SDS011;38584;49.426;8.396;2022-12-29T22:58:00;16.05;;;2.70;;
52686;SDS011;38584;49.426;8.396;2022-12-29T23:00:26;9.73;;;2.28;;
52686;SDS011;38584;49.426;8.396;2022-12-29T23:02:51;14.38;;;2.72;;
52686;SDS011;38584;49.426;8.396;2022-12-29T23:05:17;10.52;;;2.13;;
52686;SDS011;38584;49.426;8.396;2022-12-29T23:07:42;14.90;;;2.40;;
52686;SDS011;38584;49.426;8.396;2022-12-29T23:10:07;13.15;;;2.55;;
52686;SDS011;38584;49.426;8.396;2022-12-29T23:12:33;11.30;;;2.25;;
52686;SDS011;38584;49.426;8.396;2022-12-29T23:14:58;12.43;;;2.20;;
52686;SDS011;38584;49.426;8.396;2022-12-29T23:17:25;9.43;;;2.30;;
52686;SDS011;38584;49.426;8.396;2022-12-29T23:19:50;10.27;;;2.33;;
52686;SDS011;38584;49.426;8.396;2022-12-29T23:22:16;13.10;;;2.50;;
52686;SDS011;38584;49.426;8.396;2022-12-29T23:24:45;14.60;;;2.47;;
52686;SDS011;38584;49.426;8.396;2022-12-29T23:27:10;12.68;;;2.45;;
52686;SDS011;38584;49.426;8.396;2022-12-29T23:29:35;12.95;;;2.30;;
52686;SDS011;38584;49.426;8.396;2022-12-29T23:32:00;12.77;;;2.78;;
52686;SDS011;38584;49.426;8.396;2022-12-29T23:34:26;13.48;;;2.65;;
52686;SDS011;38584;49.426;8.396;2022-12-29T23:36:51;13.00;;;2.60;;
52686;SDS011;38584;49.426;8.396;2022-12-29T23:39:18;16.20;;;2.97;;
52686;SDS011;38584;49.426;8.396;2022-12-29T23:41:48;16.13;;;2.47;;
52686;SDS011;38584;49.426;8.396;2022-12-29T23:44:14;9.18;;;2.40;;
52686;SDS011;38584;49.426;8.396;2022-12-29T23:46:39;13.82;;;2.30;;
52686;SDS011;38584;49.426;8.396;2022-12-29T23:49:05;13.63;;;2.40;;
52686;SDS011;38584;49.426;8.396;2022-12-29T23:51:34;11.95;;;2.45;;
52686;SDS011;38584;49.426;8.396;2022-12-29T23:53:59;19.27;;;2.90;;
52686;SDS011;38584;49.426;8.396;2022-12-29T23:56:24;10.02;;;2.67;;
52686;SDS011;38584;49.426;8.396;2022-12-29T23:58:50;11.90;;;2.92;;
